Warning: Javascript must be enabled to use all the features on this page!


Page Loading - Please Wait...

Click to hideNews Bulletins

Peak Streamflow for the Nation

USGS 06836500 Driftwood Creek near McCook, Nebr.

Red Willow County, Nebraska
Hydrologic Unit Code 10250004
Latitude  40°08'45", Longitude 100°40'22" NAD27
Drainage area 361  square miles
Contributing drainage area 351  square miles
Gage datum 2,502.78 feet above NGVD29
Output formats
Table
Graph
Tab-separated file
peakfq (watstore) format
Reselect output format
Water
Year
Date Gage
Height
(feet)
Stream-
flow
(cfs)
1946 1946-09-09 20.573 3,400
1947 1947-06-25 18.853 2,270
1948 1948-06-21 15.773 1,520
1949 1949-06-18 11.403 780
1950 1950-08-07 25.433 4,740
1951 1951-09-08 24.763 4,470
1952 1952-07-05 15.113 1,370
1953 1953-07-12 7.111,3 124
1954 1954-08-18 10.953 593
1955 1955-06-18 9.233 284
1956 1956-06-17 23.103 3,810
1957 1957-05-30 22.163 3,620
1958 1957-10-23 12.043 560
1959 1959-07-20 7.543 220
1960 1960-03-21 21.083 2,830
1961 1961-05-21 6.433 147
1962 1962-08-01 13.433 940
1963 1963-02-02 8.823 324
1964 1964-08-20 16.24 902
1965 1965-07-05 15.96 780
1966 1965-10-19 13.89 356
1967 1967-07-09 13.83 423
1968 1968-08-28 18.74 1,960
1969 1969-05-08 14.21 488
1970 1970-06-12 16.87 1,170
1971 1971-07-05 13.78 461
1972 1972-06-18 18.20 1,660
1973 1973-07-21 13.49 374
1974 1974-06-08 16.35 1,020
1975 1975-06-25 11.92 193
1976 1976-05-21 14.37 518
1977 1977-09-02 15.42 607
1978 1978-07-24 12.05 205
1979 1979-07-18 12.83 283
1980 1980-07-02 13.98 408
1981 1981-07-26 12.591 140
1982 1982-07-11 10.15 800
1983 1983-06-18 7.89 460
1984 1984-07-04 7.67 334
1985 1985-06-27 11.29 843
1986 1986-07-26 4.26 74.0
1987 1987-06-10 5.17 126
1988 1988-07-19 8.58 436
1989 1989-06-30 16.96 1,370
1990 1990-05-28 4.99 112
1991 1991-06-09 5.82 160
1992 1992-08-17 11.54 326
1993 1993-07-24 6.77 112
1994 1994-06-09 6.72 110
1995 1995-06-23 4.53 43.0
1996 1996-06-17 10.81 288
1997 1997-06-18 4.10 35.0
1998 1998-07-10 4.71 44.0
1999 1999-05-23 11.30 422
2000 2000-06-07 3.352 9.30
2001 2001-07-27 5.81 70.0
2002 2002-08-28 10.62 421
2003 2003-04-16 6.17 38.0
2004 2004-07-10 7.45 155
2005 2005-08-17 12.05 384
2006 2006-05-24 3.671,2 3.90
2007 2007-04-24 18.48 1,760
2008 2008-05-24 13.51 803
2009 2009-06-15 7.72 118
2010 2010-08-05 8.15 173
2011 2011-06-22 4.87 49.0
2012 2012-07-31 4.90 40.0
2013 2013-09-12 4.53 36.0
2014 2014-06-09 6.53 84.0
2015 2015-08-04 9.99 306
2016 2016-09-04 12.092 409
2017 2017-08-16 5.42 62.7
2018 2018-07-29 15.07 1,050
2019 2019-06-11 5.77 81.6
2020 2020-07-06 3.32 14.5
2021 2021-05-27 7.66 142
?
  Peak Gage-Height Qualification Codes.